sensor_id;sensor_type;location;lat;lon;timestamp;pressure;altitude;pressure_sealevel;temperature;humidity
79707;BME280;69200;53.612;-2.416;2023-07-22T00:01:05;99473.16;;;15.18;79.06
79707;BME280;69200;53.612;-2.416;2023-07-22T00:03:31;99469.91;;;15.06;78.46
79707;BME280;69200;53.612;-2.416;2023-07-22T00:06:14;99469.03;;;15.26;77.40
79707;BME280;69200;53.612;-2.416;2023-07-22T00:08:40;99467.69;;;15.18;77.96
79707;BME280;69200;53.612;-2.416;2023-07-22T00:11:05;99461.16;;;15.09;77.75
79707;BME280;69200;53.612;-2.416;2023-07-22T00:13:32;99458.66;;;15.18;78.19
79707;BME280;69200;53.612;-2.416;2023-07-22T00:15:58;99462.81;;;15.05;79.02
79707;BME280;69200;53.612;-2.416;2023-07-22T00:18:24;99461.94;;;15.20;78.82
79707;BME280;69200;53.612;-2.416;2023-07-22T00:20:50;99456.25;;;15.11;78.78
79707;BME280;69200;53.612;-2.416;2023-07-22T00:23:16;99462.41;;;14.57;81.06
79707;BME280;69200;53.612;-2.416;2023-07-22T00:25:42;99446.56;;;14.69;81.29
79707;BME280;69200;53.612;-2.416;2023-07-22T00:28:07;99449.25;;;14.79;80.98
79707;BME280;69200;53.612;-2.416;2023-07-22T00:30:33;99444.91;;;14.68;81.31
79707;BME280;69200;53.612;-2.416;2023-07-22T00:32:58;99434.22;;;14.82;79.72
79707;BME280;69200;53.612;-2.416;2023-07-22T00:35:24;99435.00;;;14.88;80.72
79707;BME280;69200;53.612;-2.416;2023-07-22T00:37:49;99433.66;;;14.85;80.31
79707;BME280;69200;53.612;-2.416;2023-07-22T00:40:15;99429.06;;;14.70;80.92
79707;BME280;69200;53.612;-2.416;2023-07-22T00:42:41;99427.38;;;14.85;80.34
79707;BME280;69200;53.612;-2.416;2023-07-22T00:45:06;99426.81;;;14.88;80.12
79707;BME280;69200;53.612;-2.416;2023-07-22T00:47:35;99422.97;;;14.89;80.38
79707;BME280;69200;53.612;-2.416;2023-07-22T00:50:06;99424.59;;;15.00;80.18
79707;BME280;69200;53.612;-2.416;2023-07-22T00:52:33;99412.56;;;15.01;79.35
79707;BME280;69200;53.612;-2.416;2023-07-22T00:54:59;99411.47;;;14.97;79.33
79707;BME280;69200;53.612;-2.416;2023-07-22T00:57:24;99407.34;;;14.99;79.71
79707;BME280;69200;53.612;-2.416;2023-07-22T00:59:50;99408.16;;;15.10;78.75
79707;BME280;69200;53.612;-2.416;2023-07-22T01:02:16;99401.13;;;14.94;78.71
79707;BME280;69200;53.612;-2.416;2023-07-22T01:04:42;99404.50;;;14.65;80.54
79707;BME280;69200;53.612;-2.416;2023-07-22T01:07:08;99399.03;;;14.65;81.02
79707;BME280;69200;53.612;-2.416;2023-07-22T01:09:39;99398.69;;;14.87;80.32
79707;BME280;69200;53.612;-2.416;2023-07-22T01:12:05;99386.66;;;14.83;79.55
79707;BME280;69200;53.612;-2.416;2023-07-22T01:14:41;99377.88;;;14.96;78.91
79707;BME280;69200;53.612;-2.416;2023-07-22T01:17:09;99382.59;;;14.80;79.65
79707;BME280;69200;53.612;-2.416;2023-07-22T01:19:35;99382.66;;;14.65;79.34
79707;BME280;69200;53.612;-2.416;2023-07-22T01:22:02;99375.56;;;14.59;80.05
79707;BME280;69200;53.612;-2.416;2023-07-22T01:24:29;99374.91;;;14.88;79.96
79707;BME280;69200;53.612;-2.416;2023-07-22T01:26:55;99370.91;;;14.70;80.58
79707;BME280;69200;53.612;-2.416;2023-07-22T01:29:21;99361.09;;;14.64;80.00
79707;BME280;69200;53.612;-2.416;2023-07-22T01:31:50;99368.19;;;14.60;80.54
79707;BME280;69200;53.612;-2.416;2023-07-22T01:34:15;99353.94;;;14.73;80.18
79707;BME280;69200;53.612;-2.416;2023-07-22T01:36:42;99349.41;;;14.53;80.84
79707;BME280;69200;53.612;-2.416;2023-07-22T01:39:08;99355.91;;;14.62;81.06
79707;BME280;69200;53.612;-2.416;2023-07-22T01:41:33;99348.25;;;14.69;80.62
79707;BME280;69200;53.612;-2.416;2023-07-22T01:43:59;99339.47;;;14.72;80.25
79707;BME280;69200;53.612;-2.416;2023-07-22T01:46:25;99342.72;;;14.79;79.74
79707;BME280;69200;53.612;-2.416;2023-07-22T01:48:50;99339.16;;;14.84;79.82
79707;BME280;69200;53.612;-2.416;2023-07-22T01:51:16;99341.56;;;14.91;79.77
79707;BME280;69200;53.612;-2.416;2023-07-22T01:53:41;99334.88;;;14.63;80.79
79707;BME280;69200;53.612;-2.416;2023-07-22T01:56:06;99323.38;;;14.71;80.72
79707;BME280;69200;53.612;-2.416;2023-07-22T01:58:32;99310.31;;;14.58;81.27
79707;BME280;69200;53.612;-2.416;2023-07-22T02:00:58;99306.78;;;14.57;80.82
79707;BME280;69200;53.612;-2.416;2023-07-22T02:03:23;99305.94;;;14.57;80.95
79707;BME280;69200;53.612;-2.416;2023-07-22T02:05:48;99312.22;;;14.57;80.71
79707;BME280;69200;53.612;-2.416;2023-07-22T02:08:14;99305.44;;;14.54;80.42
79707;BME280;69200;53.612;-2.416;2023-07-22T02:10:39;99301.06;;;14.43;81.62
79707;BME280;69200;53.612;-2.416;2023-07-22T02:13:05;99303.53;;;14.45;80.97
79707;BME280;69200;53.612;-2.416;2023-07-22T02:15:32;99301.84;;;14.59;80.35
79707;BME280;69200;53.612;-2.416;2023-07-22T02:17:57;99295.84;;;14.62;80.77
79707;BME280;69200;53.612;-2.416;2023-07-22T02:20:22;99295.03;;;14.57;81.26
79707;BME280;69200;53.612;-2.416;2023-07-22T02:22:48;99290.97;;;14.44;81.65
79707;BME280;69200;53.612;-2.416;2023-07-22T02:25:14;99284.97;;;14.47;82.16
79707;BME280;69200;53.612;-2.416;2023-07-22T02:27:40;99279.75;;;14.50;81.23
79707;BME280;69200;53.612;-2.416;2023-07-22T02:30:07;99275.19;;;14.36;81.24
79707;BME280;69200;53.612;-2.416;2023-07-22T02:32:37;99280.13;;;14.23;82.24
79707;BME280;69200;53.612;-2.416;2023-07-22T02:35:02;99268.09;;;14.30;82.35
79707;BME280;69200;53.612;-2.416;2023-07-22T02:37:28;99273.50;;;14.45;81.34
79707;BME280;69200;53.612;-2.416;2023-07-22T02:39:54;99274.03;;;14.42;81.53
79707;BME280;69200;53.612;-2.416;2023-07-22T02:42:20;99266.34;;;14.59;81.27
79707;BME280;69200;53.612;-2.416;2023-07-22T02:44:45;99259.22;;;14.68;80.57
79707;BME280;69200;53.612;-2.416;2023-07-22T02:47:11;99256.28;;;14.49;81.17
79707;BME280;69200;53.612;-2.416;2023-07-22T02:49:37;99257.28;;;14.04;81.73
79707;BME280;69200;53.612;-2.416;2023-07-22T02:52:02;99260.22;;;14.18;82.47
79707;BME280;69200;53.612;-2.416;2023-07-22T02:54:28;99258.31;;;14.18;81.89
79707;BME280;69200;53.612;-2.416;2023-07-22T02:56:53;99250.69;;;14.10;82.42
79707;BME280;69200;53.612;-2.416;2023-07-22T02:59:19;99250.69;;;14.10;83.20
79707;BME280;69200;53.612;-2.416;2023-07-22T03:01:44;99244.22;;;13.91;82.43
79707;BME280;69200;53.612;-2.416;2023-07-22T03:04:09;99238.28;;;13.74;83.56
79707;BME280;69200;53.612;-2.416;2023-07-22T03:06:35;99234.41;;;13.90;83.50
79707;BME280;69200;53.612;-2.416;2023-07-22T03:09:00;99231.91;;;14.04;83.36
79707;BME280;69200;53.612;-2.416;2023-07-22T03:11:25;99222.63;;;14.05;82.99
79707;BME280;69200;53.612;-2.416;2023-07-22T03:13:52;99227.03;;;13.90;83.44
79707;BME280;69200;53.612;-2.416;2023-07-22T03:16:19;99216.59;;;14.13;83.43
79707;BME280;69200;53.612;-2.416;2023-07-22T03:18:45;99219.34;;;14.03;83.11
79707;BME280;69200;53.612;-2.416;2023-07-22T03:21:10;99219.41;;;13.87;83.07
79707;BME280;69200;53.612;-2.416;2023-07-22T03:23:35;99212.06;;;13.88;83.42
79707;BME280;69200;53.612;-2.416;2023-07-22T03:26:01;99216.22;;;12.94;87.05
79707;BME280;69200;53.612;-2.416;2023-07-22T03:28:26;99208.88;;;13.45;86.27
79707;BME280;69200;53.612;-2.416;2023-07-22T03:30:52;99200.09;;;13.63;85.46
79707;BME280;69200;53.612;-2.416;2023-07-22T03:33:18;99193.25;;;13.81;84.61
79707;BME280;69200;53.612;-2.416;2023-07-22T03:35:43;99189.44;;;13.82;85.20
79707;BME280;69200;53.612;-2.416;2023-07-22T03:38:09;99192.38;;;13.96;84.26
79707;BME280;69200;53.612;-2.416;2023-07-22T03:40:34;99196.06;;;13.56;85.77
79707;BME280;69200;53.612;-2.416;2023-07-22T03:43:00;99200.63;;;13.81;85.69
79707;BME280;69200;53.612;-2.416;2023-07-22T03:45:25;99189.09;;;13.99;83.63
79707;BME280;69200;53.612;-2.416;2023-07-22T03:47:52;99187.56;;;13.73;85.05
79707;BME280;69200;53.612;-2.416;2023-07-22T03:50:19;99177.25;;;13.49;86.21
79707;BME280;69200;53.612;-2.416;2023-07-22T03:52:44;99171.50;;;13.66;85.76
79707;BME280;69200;53.612;-2.416;2023-07-22T03:55:10;99169.78;;;13.85;85.00
79707;BME280;69200;53.612;-2.416;2023-07-22T03:57:35;99175.00;;;13.77;85.04
79707;BME280;69200;53.612;-2.416;2023-07-22T04:00:01;99182.53;;;13.95;85.13
79707;BME280;69200;53.612;-2.416;2023-07-22T04:02:28;99177.94;;;13.90;84.45
79707;BME280;69200;53.612;-2.416;2023-07-22T04:04:54;99169.41;;;14.12;83.63
79707;BME280;69200;53.612;-2.416;2023-07-22T04:07:20;99164.38;;;13.75;84.94
79707;BME280;69200;53.612;-2.416;2023-07-22T04:09:47;99168.91;;;14.00;83.63
79707;BME280;69200;53.612;-2.416;2023-07-22T04:12:12;99169.19;;;13.98;84.04
79707;BME280;69200;53.612;-2.416;2023-07-22T04:14:38;99164.66;;;13.74;85.27
79707;BME280;69200;53.612;-2.416;2023-07-22T04:17:04;99161.22;;;14.07;83.25
79707;BME280;69200;53.612;-2.416;2023-07-22T04:19:30;99159.53;;;14.16;83.29
79707;BME280;69200;53.612;-2.416;2023-07-22T04:21:55;99155.09;;;13.71;85.69
79707;BME280;69200;53.612;-2.416;2023-07-22T04:24:21;99152.00;;;13.93;84.37
79707;BME280;69200;53.612;-2.416;2023-07-22T04:26:46;99155.03;;;13.86;84.71
79707;BME280;69200;53.612;-2.416;2023-07-22T04:29:12;99147.06;;;14.05;84.02
79707;BME280;69200;53.612;-2.416;2023-07-22T04:31:38;99144.50;;;14.24;83.34
79707;BME280;69200;53.612;-2.416;2023-07-22T04:34:04;99142.66;;;14.09;83.13
79707;BME280;69200;53.612;-2.416;2023-07-22T04:36:30;99138.88;;;14.05;83.63
79707;BME280;69200;53.612;-2.416;2023-07-22T04:38:57;99133.88;;;14.22;82.34
79707;BME280;69200;53.612;-2.416;2023-07-22T04:41:22;99129.50;;;14.21;83.40
79707;BME280;69200;53.612;-2.416;2023-07-22T04:43:48;99136.06;;;14.20;83.04
79707;BME280;69200;53.612;-2.416;2023-07-22T04:46:15;99133.38;;;14.15;82.66
79707;BME280;69200;53.612;-2.416;2023-07-22T04:48:41;99130.69;;;14.05;82.95
79707;BME280;69200;53.612;-2.416;2023-07-22T04:51:07;99130.25;;;13.78;84.30
79707;BME280;69200;53.612;-2.416;2023-07-22T04:53:32;99121.44;;;14.01;83.64
79707;BME280;69200;53.612;-2.416;2023-07-22T04:55:58;99118.78;;;13.86;84.20
79707;BME280;69200;53.612;-2.416;2023-07-22T04:58:23;99115.44;;;14.04;83.47
79707;BME280;69200;53.612;-2.416;2023-07-22T05:00:49;99123.25;;;14.16;82.12
79707;BME280;69200;53.612;-2.416;2023-07-22T05:03:14;99111.53;;;14.15;81.77
79707;BME280;69200;53.612;-2.416;2023-07-22T05:05:41;99115.94;;;14.06;83.17
79707;BME280;69200;53.612;-2.416;2023-07-22T05:08:06;99111.97;;;13.83;84.14
79707;BME280;69200;53.612;-2.416;2023-07-22T05:10:33;99110.56;;;13.96;84.20
79707;BME280;69200;53.612;-2.416;2023-07-22T05:12:59;99102.03;;;14.03;83.23
79707;BME280;69200;53.612;-2.416;2023-07-22T05:15:24;99100.47;;;13.91;83.66
79707;BME280;69200;53.612;-2.416;2023-07-22T05:17:50;99102.97;;;13.88;83.80
79707;BME280;69200;53.612;-2.416;2023-07-22T05:20:15;99098.31;;;13.88;84.49
79707;BME280;69200;53.612;-2.416;2023-07-22T05:22:42;99091.44;;;13.36;85.21
79707;BME280;69200;53.612;-2.416;2023-07-22T05:25:08;99090.03;;;13.44;85.98
79707;BME280;69200;53.612;-2.416;2023-07-22T05:27:34;99087.50;;;13.63;85.59
79707;BME280;69200;53.612;-2.416;2023-07-22T05:30:00;99085.13;;;13.56;85.22
79707;BME280;69200;53.612;-2.416;2023-07-22T05:32:28;99078.66;;;13.16;86.98
79707;BME280;69200;53.612;-2.416;2023-07-22T05:34:53;99072.41;;;13.06;88.10
79707;BME280;69200;53.612;-2.416;2023-07-22T05:37:18;99074.56;;;13.19;87.51
79707;BME280;69200;53.612;-2.416;2023-07-22T05:39:44;99064.72;;;13.38;86.78
79707;BME280;69200;53.612;-2.416;2023-07-22T05:42:09;99072.63;;;13.40;86.68
79707;BME280;69200;53.612;-2.416;2023-07-22T05:44:34;99070.97;;;13.49;86.54
79707;BME280;69200;53.612;-2.416;2023-07-22T05:47:00;99071.97;;;13.63;85.52
79707;BME280;69200;53.612;-2.416;2023-07-22T05:49:25;99066.22;;;13.70;85.15
79707;BME280;69200;53.612;-2.416;2023-07-22T05:51:50;99063.38;;;13.36;86.17
79707;BME280;69200;53.612;-2.416;2023-07-22T05:54:16;99057.44;;;13.03;88.41
79707;BME280;69200;53.612;-2.416;2023-07-22T05:56:42;99058.50;;;13.23;87.03
79707;BME280;69200;53.612;-2.416;2023-07-22T05:59:07;99061.16;;;13.48;86.03
79707;BME280;69200;53.612;-2.416;2023-07-22T06:01:32;99047.38;;;12.88;88.32
79707;BME280;69200;53.612;-2.416;2023-07-22T06:03:58;99040.00;;;13.25;87.93
79707;BME280;69200;53.612;-2.416;2023-07-22T06:06:23;99046.72;;;13.37;87.03
79707;BME280;69200;53.612;-2.416;2023-07-22T06:08:48;99054.03;;;13.47;86.00
79707;BME280;69200;53.612;-2.416;2023-07-22T06:11:14;99044.75;;;13.53;86.87
79707;BME280;69200;53.612;-2.416;2023-07-22T06:13:39;99041.38;;;13.77;84.96
79707;BME280;69200;53.612;-2.416;2023-07-22T06:16:05;99046.47;;;13.93;84.63
79707;BME280;69200;53.612;-2.416;2023-07-22T06:18:30;99040.09;;;13.64;85.81
79707;BME280;69200;53.612;-2.416;2023-07-22T06:20:55;99037.59;;;13.73;85.09
79707;BME280;69200;53.612;-2.416;2023-07-22T06:23:21;99034.22;;;13.91;84.75
79707;BME280;69200;53.612;-2.416;2023-07-22T06:25:46;99037.25;;;13.84;84.75
79707;BME280;69200;53.612;-2.416;2023-07-22T06:28:11;99037.44;;;13.98;84.85
79707;BME280;69200;53.612;-2.416;2023-07-22T06:30:37;99040.00;;;14.18;83.51
79707;BME280;69200;53.612;-2.416;2023-07-22T06:33:02;99038.38;;;14.22;82.72
79707;BME280;69200;53.612;-2.416;2023-07-22T06:35:28;99034.63;;;14.13;83.94
79707;BME280;69200;53.612;-2.416;2023-07-22T06:37:53;99033.63;;;13.99;84.81
79707;BME280;69200;53.612;-2.416;2023-07-22T06:40:18;99027.13;;;13.30;86.84
79707;BME280;69200;53.612;-2.416;2023-07-22T06:42:44;99029.59;;;13.86;85.00
79707;BME280;69200;53.612;-2.416;2023-07-22T06:45:09;99028.84;;;13.76;86.39
79707;BME280;69200;53.612;-2.416;2023-07-22T06:47:35;99032.78;;;13.98;84.89
79707;BME280;69200;53.612;-2.416;2023-07-22T06:50:02;99024.72;;;13.78;85.70
79707;BME280;69200;53.612;-2.416;2023-07-22T06:52:27;99028.31;;;13.74;85.95
79707;BME280;69200;53.612;-2.416;2023-07-22T06:54:53;99024.56;;;13.64;85.79
79707;BME280;69200;53.612;-2.416;2023-07-22T06:57:18;99025.09;;;13.61;86.30
79707;BME280;69200;53.612;-2.416;2023-07-22T06:59:44;99012.47;;;13.76;85.73
79707;BME280;69200;53.612;-2.416;2023-07-22T07:02:09;99010.84;;;13.75;84.79
79707;BME280;69200;53.612;-2.416;2023-07-22T07:04:34;99017.44;;;13.63;86.62
79707;BME280;69200;53.612;-2.416;2023-07-22T07:07:00;99016.09;;;13.61;86.59
79707;BME280;69200;53.612;-2.416;2023-07-22T07:09:25;99010.84;;;13.80;85.40
79707;BME280;69200;53.612;-2.416;2023-07-22T07:11:51;99009.25;;;13.68;85.52
79707;BME280;69200;53.612;-2.416;2023-07-22T07:14:17;99008.34;;;13.83;85.08
79707;BME280;69200;53.612;-2.416;2023-07-22T07:16:43;99015.72;;;13.78;85.99
79707;BME280;69200;53.612;-2.416;2023-07-22T07:19:09;99003.69;;;13.89;85.10
79707;BME280;69200;53.612;-2.416;2023-07-22T07:21:35;99003.31;;;14.00;84.28
79707;BME280;69200;53.612;-2.416;2023-07-22T07:24:00;98997.94;;;13.90;85.33
79707;BME280;69200;53.612;-2.416;2023-07-22T07:26:26;98999.25;;;13.98;85.25
79707;BME280;69200;53.612;-2.416;2023-07-22T07:28:53;98996.44;;;14.08;84.62
79707;BME280;69200;53.612;-2.416;2023-07-22T07:31:19;98984.59;;;14.23;83.27
79707;BME280;69200;53.612;-2.416;2023-07-22T07:33:44;99001.00;;;14.18;83.62
79707;BME280;69200;53.612;-2.416;2023-07-22T07:36:10;98993.63;;;14.18;83.93
79707;BME280;69200;53.612;-2.416;2023-07-22T07:38:35;98993.13;;;14.11;84.51
79707;BME280;69200;53.612;-2.416;2023-07-22T07:41:05;98983.44;;;13.95;84.93
79707;BME280;69200;53.612;-2.416;2023-07-22T07:43:37;98982.88;;;13.98;84.84
79707;BME280;69200;53.612;-2.416;2023-07-22T07:46:31;98985.31;;;13.99;84.57
79707;BME280;69200;53.612;-2.416;2023-07-22T07:49:00;98989.34;;;14.12;84.44
79707;BME280;69200;53.612;-2.416;2023-07-22T07:51:30;98979.75;;;14.15;83.88
79707;BME280;69200;53.612;-2.416;2023-07-22T07:53:57;98976.53;;;14.08;85.22
79707;BME280;69200;53.612;-2.416;2023-07-22T07:56:23;98974.59;;;14.13;85.27
79707;BME280;69200;53.612;-2.416;2023-07-22T07:58:50;98970.75;;;14.14;85.70
79707;BME280;69200;53.612;-2.416;2023-07-22T08:01:16;98978.94;;;14.14;86.15
79707;BME280;69200;53.612;-2.416;2023-07-22T08:03:42;98969.94;;;14.14;85.16
79707;BME280;69200;53.612;-2.416;2023-07-22T08:06:09;98972.41;;;14.10;85.71
79707;BME280;69200;53.612;-2.416;2023-07-22T08:08:35;98970.31;;;14.36;83.99
79707;BME280;69200;53.612;-2.416;2023-07-22T08:11:02;98978.25;;;14.27;84.40
79707;BME280;69200;53.612;-2.416;2023-07-22T08:13:28;98976.28;;;14.38;84.69
79707;BME280;69200;53.612;-2.416;2023-07-22T08:15:56;98981.06;;;14.22;85.11
79707;BME280;69200;53.612;-2.416;2023-07-22T08:18:21;98976.44;;;14.18;85.21
79707;BME280;69200;53.612;-2.416;2023-07-22T08:20:46;98971.97;;;14.32;84.62
79707;BME280;69200;53.612;-2.416;2023-07-22T08:23:13;98973.72;;;14.18;85.89
79707;BME280;69200;53.612;-2.416;2023-07-22T08:25:38;98971.34;;;14.45;83.92
79707;BME280;69200;53.612;-2.416;2023-07-22T08:28:04;98966.13;;;14.44;84.12
79707;BME280;69200;53.612;-2.416;2023-07-22T08:30:29;98969.22;;;14.32;84.90
79707;BME280;69200;53.612;-2.416;2023-07-22T08:32:55;98973.69;;;14.23;86.01
79707;BME280;69200;53.612;-2.416;2023-07-22T08:35:20;98966.22;;;14.34;85.42
79707;BME280;69200;53.612;-2.416;2023-07-22T08:37:47;98963.66;;;14.47;84.17
79707;BME280;69200;53.612;-2.416;2023-07-22T08:40:12;98963.06;;;14.50;84.32
79707;BME280;69200;53.612;-2.416;2023-07-22T08:42:38;98953.16;;;14.31;85.52
79707;BME280;69200;53.612;-2.416;2023-07-22T08:45:06;98965.69;;;14.32;84.74
79707;BME280;69200;53.612;-2.416;2023-07-22T08:47:35;98962.56;;;14.43;85.43
79707;BME280;69200;53.612;-2.416;2023-07-22T08:50:04;98957.34;;;14.52;83.86
79707;BME280;69200;53.612;-2.416;2023-07-22T08:52:31;98950.50;;;14.54;84.66
79707;BME280;69200;53.612;-2.416;2023-07-22T08:54:58;98957.28;;;14.57;84.14
79707;BME280;69200;53.612;-2.416;2023-07-22T08:57:24;98956.09;;;14.34;86.07
79707;BME280;69200;53.612;-2.416;2023-07-22T08:59:51;98945.03;;;14.54;84.34
79707;BME280;69200;53.612;-2.416;2023-07-22T09:02:17;98953.13;;;14.65;84.74
79707;BME280;69200;53.612;-2.416;2023-07-22T09:04:44;98946.16;;;14.53;84.74
79707;BME280;69200;53.612;-2.416;2023-07-22T09:07:11;98946.38;;;14.57;84.32
79707;BME280;69200;53.612;-2.416;2023-07-22T09:09:37;98941.16;;;14.85;83.46
79707;BME280;69200;53.612;-2.416;2023-07-22T09:12:04;98938.25;;;14.76;83.76
79707;BME280;69200;53.612;-2.416;2023-07-22T09:14:33;98933.38;;;14.73;84.14
79707;BME280;69200;53.612;-2.416;2023-07-22T09:16:59;98939.13;;;14.13;87.56
79707;BME280;69200;53.612;-2.416;2023-07-22T09:19:25;98936.59;;;14.51;85.07
79707;BME280;69200;53.612;-2.416;2023-07-22T09:21:50;98929.66;;;14.64;84.63
79707;BME280;69200;53.612;-2.416;2023-07-22T09:24:23;98930.47;;;14.64;84.66
79707;BME280;69200;53.612;-2.416;2023-07-22T09:26:50;98932.56;;;14.14;87.45
79707;BME280;69200;53.612;-2.416;2023-07-22T09:29:15;98926.22;;;14.53;85.19
79707;BME280;69200;53.612;-2.416;2023-07-22T09:31:52;98928.06;;;14.58;85.24
79707;BME280;69200;53.612;-2.416;2023-07-22T09:34:18;98927.31;;;14.52;85.64
79707;BME280;69200;53.612;-2.416;2023-07-22T09:36:54;98927.84;;;14.54;84.84
79707;BME280;69200;53.612;-2.416;2023-07-22T09:39:20;98928.59;;;14.83;83.87
79707;BME280;69200;53.612;-2.416;2023-07-22T09:41:46;98928.59;;;14.83;84.17
79707;BME280;69200;53.612;-2.416;2023-07-22T09:44:12;98917.91;;;14.63;84.77
79707;BME280;69200;53.612;-2.416;2023-07-22T09:46:38;98918.50;;;14.60;85.60
79707;BME280;69200;53.612;-2.416;2023-07-22T09:49:05;98917.22;;;14.76;84.58
79707;BME280;69200;53.612;-2.416;2023-07-22T09:51:40;98920.84;;;14.91;83.91
79707;BME280;69200;53.612;-2.416;2023-07-22T09:54:06;98909.31;;;14.75;84.61
79707;BME280;69200;53.612;-2.416;2023-07-22T09:56:43;98915.22;;;14.58;85.95
79707;BME280;69200;53.612;-2.416;2023-07-22T09:59:10;98907.03;;;14.82;84.46
79707;BME280;69200;53.612;-2.416;2023-07-22T10:01:38;98910.59;;;14.82;84.72
79707;BME280;69200;53.612;-2.416;2023-07-22T10:04:04;98904.09;;;14.78;85.65
79707;BME280;69200;53.612;-2.416;2023-07-22T10:06:31;98911.75;;;14.76;84.95
79707;BME280;69200;53.612;-2.416;2023-07-22T10:09:01;98911.28;;;14.69;85.05
79707;BME280;69200;53.612;-2.416;2023-07-22T10:11:27;98899.09;;;14.86;84.90
79707;BME280;69200;53.612;-2.416;2023-07-22T10:13:55;98898.25;;;15.09;84.34
79707;BME280;69200;53.612;-2.416;2023-07-22T10:16:20;98904.09;;;15.21;83.53
79707;BME280;69200;53.612;-2.416;2023-07-22T10:18:48;98906.97;;;15.11;85.16
79707;BME280;69200;53.612;-2.416;2023-07-22T10:21:13;98901.25;;;15.07;84.93
79707;BME280;69200;53.612;-2.416;2023-07-22T10:23:40;98885.47;;;15.04;83.67
79707;BME280;69200;53.612;-2.416;2023-07-22T10:26:06;98895.78;;;15.07;84.25
79707;BME280;69200;53.612;-2.416;2023-07-22T10:28:32;98889.50;;;15.07;85.67
79707;BME280;69200;53.612;-2.416;2023-07-22T10:30:58;98893.78;;;14.94;86.84
79707;BME280;69200;53.612;-2.416;2023-07-22T10:33:24;98893.97;;;14.55;87.82
79707;BME280;69200;53.612;-2.416;2023-07-22T10:38:30;98884.03;;;15.07;84.15
79707;BME280;69200;53.612;-2.416;2023-07-22T10:40:56;98878.56;;;15.07;84.89
79707;BME280;69200;53.612;-2.416;2023-07-22T10:43:31;98882.31;;;15.16;84.74
79707;BME280;69200;53.612;-2.416;2023-07-22T10:45:58;98878.97;;;15.19;84.54
79707;BME280;69200;53.612;-2.416;2023-07-22T10:48:28;98879.56;;;15.35;83.53
79707;BME280;69200;53.612;-2.416;2023-07-22T10:51:07;98876.25;;;15.19;83.81
79707;BME280;69200;53.612;-2.416;2023-07-22T10:53:41;98875.13;;;15.39;83.37
79707;BME280;69200;53.612;-2.416;2023-07-22T11:01:22;98873.44;;;15.24;83.84
79707;BME280;69200;53.612;-2.416;2023-07-22T11:12:06;98857.16;;;15.14;85.74
79707;BME280;69200;53.612;-2.416;2023-07-22T11:14:38;98857.09;;;14.58;87.87
79707;BME280;69200;53.612;-2.416;2023-07-22T11:17:05;98853.69;;;14.90;87.20
79707;BME280;69200;53.612;-2.416;2023-07-22T11:19:31;98854.97;;;15.16;85.06
79707;BME280;69200;53.612;-2.416;2023-07-22T11:21:57;98848.00;;;15.05;86.81
79707;BME280;69200;53.612;-2.416;2023-07-22T11:24:23;98837.00;;;14.91;88.56
79707;BME280;69200;53.612;-2.416;2023-07-22T11:26:50;98835.38;;;15.28;85.28
79707;BME280;69200;53.612;-2.416;2023-07-22T11:29:16;98826.44;;;15.22;85.67
79707;BME280;69200;53.612;-2.416;2023-07-22T11:31:43;98828.81;;;15.10;86.74
79707;BME280;69200;53.612;-2.416;2023-07-22T11:34:11;98830.22;;;15.26;86.32
79707;BME280;69200;53.612;-2.416;2023-07-22T11:36:37;98820.44;;;14.64;89.70
79707;BME280;69200;53.612;-2.416;2023-07-22T11:39:10;98811.63;;;15.09;85.73
79707;BME280;69200;53.612;-2.416;2023-07-22T11:41:37;98812.72;;;15.27;87.34
79707;BME280;69200;53.612;-2.416;2023-07-22T11:44:04;98804.38;;;15.19;87.69
79707;BME280;69200;53.612;-2.416;2023-07-22T11:46:35;98810.41;;;15.34;88.16
79707;BME280;69200;53.612;-2.416;2023-07-22T11:49:01;98805.16;;;15.57;86.01
79707;BME280;69200;53.612;-2.416;2023-07-22T11:51:26;98800.13;;;15.45;88.54
79707;BME280;69200;53.612;-2.416;2023-07-22T11:53:53;98790.31;;;15.77;85.68
79707;BME280;69200;53.612;-2.416;2023-07-22T11:56:22;98800.19;;;15.59;86.18
79707;BME280;69200;53.612;-2.416;2023-07-22T11:58:49;98795.72;;;15.82;85.45
79707;BME280;69200;53.612;-2.416;2023-07-22T12:01:15;98788.72;;;15.76;84.61
79707;BME280;69200;53.612;-2.416;2023-07-22T12:03:41;98787.00;;;15.93;84.43
79707;BME280;69200;53.612;-2.416;2023-07-22T12:06:07;98773.44;;;15.88;84.92
79707;BME280;69200;53.612;-2.416;2023-07-22T12:08:33;98781.34;;;15.90;87.00
79707;BME280;69200;53.612;-2.416;2023-07-22T12:10:59;98774.75;;;15.91;85.70
79707;BME280;69200;53.612;-2.416;2023-07-22T12:13:25;98770.19;;;16.00;85.45
79707;BME280;69200;53.612;-2.416;2023-07-22T12:16:05;98768.69;;;16.08;85.20
79707;BME280;69200;53.612;-2.416;2023-07-22T12:18:43;98764.13;;;16.17;84.90
79707;BME280;69200;53.612;-2.416;2023-07-22T12:21:09;98760.91;;;16.29;84.53
79707;BME280;69200;53.612;-2.416;2023-07-22T12:23:36;98763.50;;;16.20;86.65
79707;BME280;69200;53.612;-2.416;2023-07-22T12:26:01;98763.22;;;16.21;84.22
79707;BME280;69200;53.612;-2.416;2023-07-22T12:28:27;98749.63;;;15.89;89.05
79707;BME280;69200;53.612;-2.416;2023-07-22T12:30:52;98756.69;;;15.76;88.62
79707;BME280;69200;53.612;-2.416;2023-07-22T12:33:18;98745.88;;;15.85;88.31
79707;BME280;69200;53.612;-2.416;2023-07-22T12:35:43;98749.22;;;16.09;86.51
79707;BME280;69200;53.612;-2.416;2023-07-22T12:38:08;98744.78;;;16.00;87.31
79707;BME280;69200;53.612;-2.416;2023-07-22T12:40:34;98729.44;;;15.71;87.29
79707;BME280;69200;53.612;-2.416;2023-07-22T12:42:59;98745.25;;;15.74;89.20
79707;BME280;69200;53.612;-2.416;2023-07-22T12:45:24;98742.00;;;15.86;88.65
79707;BME280;69200;53.612;-2.416;2023-07-22T12:47:50;98738.00;;;15.97;87.77
79707;BME280;69200;53.612;-2.416;2023-07-22T12:50:16;98737.69;;;15.99;88.77
79707;BME280;69200;53.612;-2.416;2023-07-22T12:52:41;98739.31;;;16.13;87.24
79707;BME280;69200;53.612;-2.416;2023-07-22T12:55:07;98726.13;;;16.02;86.61
79707;BME280;69200;53.612;-2.416;2023-07-22T12:57:32;98729.16;;;15.73;90.48
79707;BME280;69200;53.612;-2.416;2023-07-22T12:59:58;98724.41;;;16.06;85.84
79707;BME280;69200;53.612;-2.416;2023-07-22T13:02:23;98723.69;;;16.14;84.68